Time;durP1;ratioP1;P1;durP2;ratioP2;P2;SDS_P1;SDS_P2;PMS_P1;PMS_P2;Temp;Humidity;BMP_temperature;BMP_pressure;BME280_temperature;BME280_humidity;BME280_pressure;Samples;Min_cycle;Max_cycle;Signal;HPM_P1;HPM_P2
2023/08/26 00:02:19;;;;;;;6.60;4.53;;;;;;;;;;10533498;28;20194;-82
2023/08/26 00:07:40;;;;;;;6.35;4.43;;;;;;;;;;10548077;28;20209;-84
2023/08/26 00:13:02;;;;;;;7.45;4.93;;;;;;;;;;10561682;28;20395;-83
2023/08/26 00:18:23;;;;;;;7.63;5.88;;;;;;;;;;10561816;28;20237;-80
2023/08/26 00:23:45;;;;;;;7.70;5.28;;;;;;;;;;10561586;28;20210;-82
2023/08/26 00:29:06;;;;;;;9.15;5.55;;;;;;;;;;10547339;28;20266;-82
2023/08/26 00:34:28;;;;;;;6.03;4.63;;;;;;;;;;10561197;28;20232;-85
2023/08/26 00:39:49;;;;;;;6.53;5.00;;;20.70;1.00;;;;;;10558336;28;20233;-84
2023/08/26 00:45:10;;;;;;;8.45;5.40;;;20.60;1.00;;;;;;10552584;28;20194;-80
2023/08/26 00:50:32;;;;;;;6.00;5.30;;;20.50;36.30;;;;;;10549390;28;20194;-85
2023/08/26 00:55:53;;;;;;;6.32;4.63;;;20.40;42.70;;;;;;10550117;28;20198;-80
2023/08/26 01:01:15;;;;;;;5.55;4.72;;;20.40;25.70;;;;;;10539722;28;20229;-80
2023/08/26 01:06:37;;;;;;;5.45;4.93;;;20.40;55.10;;;;;;10572522;28;20194;-80
2023/08/26 01:12:01;;;;;;;5.35;4.80;;;20.40;67.20;;;;;;10564298;28;20198;-80
2023/08/26 01:17:24;;;;;;;6.20;5.28;;;20.30;28.70;;;;;;10550796;28;20226;-81
2023/08/26 01:22:48;;;;;;;5.60;4.50;;;20.20;90.00;;;;;;10564937;28;20190;-83
2023/08/26 01:28:09;;;;;;;5.47;4.80;;;20.20;1.00;;;;;;10548392;28;20220;-84
2023/08/26 01:33:40;;;;;;;10.18;5.78;;;20.20;75.50;;;;;;10547053;28;20218;-85
2023/08/26 01:39:01;;;;;;;9.18;6.47;;;20.10;70.40;;;;;;10539733;28;20250;-81
2023/08/26 01:44:24;;;;;;;6.30;5.05;;;20.10;39.50;;;;;;10565228;28;20262;-83
2023/08/26 01:49:45;;;;;;;6.65;5.47;;;20.10;99.90;;;;;;10540456;28;20222;-80
2023/08/26 01:55:07;;;;;;;11.88;7.13;;;20.20;99.90;;;;;;10554220;28;20198;-82
2023/08/26 02:00:28;;;;;;;6.72;5.97;;;20.10;1.00;;;;;;10568508;28;20221;-83
2023/08/26 02:05:52;;;;;;;7.95;6.65;;;;;;;;;;10539446;28;20248;-84
2023/08/26 02:11:13;;;;;;;8.18;5.88;;;19.70;13.40;;;;;;10552356;28;20523;-80
2023/08/26 02:16:34;;;;;;;7.53;6.57;;;19.80;48.30;;;;;;10537759;28;20222;-80
2023/08/26 02:21:56;;;;;;;8.25;6.38;;;19.70;44.90;;;;;;10567309;28;20186;-80
2023/08/26 02:27:17;;;;;;;8.23;6.78;;;19.70;99.90;;;;;;10537542;28;20210;-83
2023/08/26 02:32:38;;;;;;;7.78;6.20;;;19.60;74.10;;;;;;10565926;28;20191;-82
2023/08/26 02:37:59;;;;;;;6.80;6.00;;;19.60;52.10;;;;;;10550699;28;20261;-81
2023/08/26 02:43:21;;;;;;;8.23;5.93;;;19.50;49.20;;;;;;10565324;28;20419;-85
2023/08/26 02:48:43;;;;;;;7.15;5.75;;;19.50;56.50;;;;;;10550711;28;20376;-81
2023/08/26 02:54:04;;;;;;;7.97;6.68;;;19.50;51.20;;;;;;10550494;28;20355;-85
2023/08/26 02:59:28;;;;;;;6.97;5.60;;;;;;;;;;10564553;28;20379;-85
2023/08/26 03:04:48;;;;;;;8.48;6.18;;;19.50;1.00;;;;;;10550231;28;20266;-80
2023/08/26 03:10:10;;;;;;;6.93;6.13;;;19.40;29.60;;;;;;10549606;28;20202;-84
2023/08/26 03:15:31;;;;;;;6.55;5.85;;;19.30;32.40;;;;;;10564930;28;20198;-82
2023/08/26 03:20:53;;;;;;;8.32;5.90;;;19.30;31.10;;;;;;10549364;28;20293;-82
2023/08/26 03:26:14;;;;;;;8.00;6.38;;;19.30;25.30;;;;;;10549124;28;20244;-80
2023/08/26 03:31:35;;;;;;;8.60;5.82;;;19.30;19.10;;;;;;10548739;28;20205;-82
2023/08/26 03:36:58;;;;;;;7.30;6.30;;;19.30;19.00;;;;;;10548184;28;20498;-86
2023/08/26 03:42:19;;;;;;;6.90;6.20;;;19.10;1.00;;;;;;10548245;28;20568;-86
2023/08/26 03:47:40;;;;;;;9.57;7.60;;;19.10;19.20;;;;;;10562680;28;20511;-84
2023/08/26 03:53:03;;;;;;;8.77;7.70;;;19.10;1.00;;;;;;10548263;28;20277;-80
2023/08/26 03:58:23;;;;;;;9.55;8.15;;;19.00;91.70;;;;;;10551615;28;20228;-79
2023/08/26 04:03:45;;;;;;;9.20;8.30;;;19.10;99.90;;;;;;10564213;28;20197;-84
2023/08/26 04:09:06;;;;;;;8.43;7.57;;;19.10;99.90;;;;;;10561548;28;20186;-84
2023/08/26 04:14:27;;;;;;;7.57;6.75;;;19.00;94.90;;;;;;10533278;28;20206;-85
2023/08/26 04:19:48;;;;;;;9.35;6.30;;;19.00;60.50;;;;;;10547477;28;20524;-86
2023/08/26 04:25:10;;;;;;;6.13;5.63;;;18.90;99.90;;;;;;10546697;28;20198;-81
2023/08/26 04:30:31;;;;;;;5.35;4.85;;;18.90;99.90;;;;;;10546756;28;20202;-82
2023/08/26 04:35:52;;;;;;;5.18;4.70;;;18.90;99.90;;;;;;10546238;28;20401;-80
2023/08/26 04:41:14;;;;;;;6.35;5.85;;;19.00;99.90;;;;;;10507399;28;20226;-79
2023/08/26 04:46:35;;;;;;;7.72;7.00;;;19.20;99.90;;;;;;10504689;28;20199;-80
2023/08/26 04:51:58;;;;;;;8.00;7.20;;;19.20;91.00;;;;;;10555269;28;20209;-81
2023/08/26 04:57:19;;;;;;;5.85;5.35;;;19.20;94.60;;;;;;10531802;28;20214;-79
2023/08/26 05:02:40;;;;;;;8.43;7.38;;;19.10;56.40;;;;;;10531663;28;20228;-82
2023/08/26 05:08:02;;;;;;;6.55;5.85;;;19.10;84.60;;;;;;10545434;28;20248;-80
2023/08/26 05:13:23;;;;;;;5.72;5.20;;;19.20;91.60;;;;;;10545740;28;20202;-80
2023/08/26 05:18:44;;;;;;;5.95;5.35;;;19.20;99.90;;;;;;10562942;28;20225;-79
2023/08/26 05:24:06;;;;;;;7.53;5.93;;;19.30;6.70;;;;;;10567845;28;20187;-79
2023/08/26 05:29:27;;;;;;;20.90;11.75;;;19.40;8.60;;;;;;10553721;28;20191;-80
2023/08/26 05:34:48;;;;;;;20.13;12.20;;;19.50;1.00;;;;;;10552769;28;20243;-79
2023/08/26 05:40:12;;;;;;;14.63;10.93;;;19.80;1.00;;;;;;10566980;28;20233;-82
2023/08/26 05:45:34;;;;;;;11.55;8.13;;;20.00;1.00;;;;;;10567193;28;20187;-80
2023/08/26 05:50:59;;;;;;;7.43;6.57;;;20.10;1.00;;;;;;10552611;28;20198;-81
2023/08/26 05:56:20;;;;;;;7.65;6.85;;;20.30;1.00;;;;;;10552061;28;20198;-79
2023/08/26 06:01:42;;;;;;;9.40;7.70;;;20.50;1.00;;;;;;10551978;28;20218;-83
2023/08/26 06:07:04;;;;;;;12.85;6.78;;;20.70;1.00;;;;;;10537657;28;20493;-80
2023/08/26 06:12:25;;;;;;;9.15;7.53;;;21.00;1.00;;;;;;10537706;28;20248;-80
2023/08/26 06:17:48;;;;;;;11.93;8.68;;;21.30;1.00;;;;;;10551343;28;20331;-80
2023/08/26 06:23:13;;;;;;;8.65;7.85;;;21.50;99.90;;;;;;10550899;28;20538;-80
2023/08/26 06:28:37;;;;;;;10.13;8.25;;;21.70;99.90;;;;;;10565187;28;20504;-79
2023/08/26 06:34:01;;;;;;;9.93;8.93;;;22.00;35.60;;;;;;10536932;28;20540;-79
2023/08/26 06:39:27;;;;;;;11.23;9.23;;;22.00;1.00;;;;;;10549994;28;20261;-80
2023/08/26 06:44:48;;;;;;;12.38;9.45;;;22.00;99.90;;;;;;10550345;28;20213;-81
2023/08/26 06:50:10;;;;;;;9.23;8.32;;;22.10;1.00;;;;;;10535732;28;20205;-80
2023/08/26 06:55:31;;;;;;;10.60;9.23;;;22.20;1.00;;;;;;10564616;28;20535;-80
2023/08/26 07:00:55;;;;;;;10.00;9.10;;;22.40;1.00;;;;;;10564389;28;20221;-81
2023/08/26 07:06:16;;;;;;;12.60;9.80;;;;;;;;;;10549304;28;20199;-80
2023/08/26 07:11:37;;;;;;;13.82;8.70;;;23.40;1.00;;;;;;10563790;28;20191;-80
2023/08/26 07:16:59;;;;;;;13.85;9.27;;;24.20;99.90;;;;;;10563291;28;20206;-81
2023/08/26 07:22:20;;;;;;;10.20;9.07;;;24.80;1.00;;;;;;10564563;28;20270;-81
2023/08/26 07:27:47;;;;;;;11.38;8.68;;;24.80;14.40;;;;;;10564386;28;20266;-82
2023/08/26 07:33:08;;;;;;;15.27;9.98;;;24.80;1.00;;;;;;10548287;28;20206;-80
2023/08/26 07:38:30;;;;;;;22.25;19.30;;;;;;;;;;10547933;28;20242;-82
2023/08/26 07:43:51;;;;;;;13.73;11.88;;;25.40;1.00;;;;;;10564453;28;20218;-79
2023/08/26 07:49:13;;;;;;;21.10;14.43;;;26.20;1.00;;;;;;10562304;28;20198;-79
2023/08/26 07:54:35;;;;;;;11.32;8.75;;;;;;;;;;10562390;28;20197;-80
2023/08/26 07:59:57;;;;;;;9.57;6.57;;;28.30;99.90;;;;;;10547985;28;20280;-81
2023/08/26 08:05:18;;;;;;;8.82;7.07;;;29.20;1.00;;;;;;10564254;28;20206;-82
2023/08/26 08:10:39;;;;;;;10.60;7.32;;;29.40;1.00;;;;;;10551648;28;20273;-80
2023/08/26 08:16:01;;;;;;;8.43;7.28;;;29.40;1.00;;;;;;10572227;28;20489;-81
2023/08/26 08:21:22;;;;;;;9.23;8.18;;;29.20;1.00;;;;;;10573600;28;20411;-81
2023/08/26 08:26:43;;;;;;;13.57;7.95;;;29.30;1.00;;;;;;10561112;28;20205;-83
2023/08/26 08:32:04;;;;;;;9.00;8.18;;;30.10;1.00;;;;;;10546573;28;20195;-81
2023/08/26 08:37:26;;;;;;;9.35;6.38;;;30.40;1.00;;;;;;10546169;28;20253;-80
2023/08/26 08:42:47;;;;;;;11.90;7.38;;;;;;;;;;10561774;28;20481;-81
2023/08/26 08:48:10;;;;;;;14.02;10.52;;;;;;;;;;10559862;28;20197;-81
2023/08/26 08:53:32;;;;;;;12.18;10.00;;;29.60;1.00;;;;;;10565107;28;20190;-81
2023/08/26 08:58:55;;;;;;;7.30;6.60;;;29.10;1.00;;;;;;10554635;28;20279;-81
2023/08/26 09:04:17;;;;;;;11.57;8.20;;;28.40;1.00;;;;;;10554683;28;20194;-81
2023/08/26 09:09:38;;;;;;;15.57;7.82;;;27.80;1.00;;;;;;10554321;28;20440;-81
2023/08/26 09:15:06;;;;;;;12.88;8.20;;;27.40;52.80;;;;;;10555338;28;20262;-80
2023/08/26 09:20:29;;;;;;;12.45;9.50;;;27.20;99.90;;;;;;10568811;28;20294;-81
2023/08/26 09:25:56;;;;;;;10.18;7.60;;;27.10;99.90;;;;;;10546841;28;20274;-80
2023/08/26 09:31:18;;;;;;;12.70;9.75;;;27.00;99.90;;;;;;10531788;28;20191;-83
2023/08/26 09:36:40;;;;;;;10.48;7.60;;;26.80;99.90;;;;;;10545814;28;20226;-80
2023/08/26 09:42:01;;;;;;;10.48;7.75;;;26.60;99.90;;;;;;10552961;28;20198;-81
2023/08/26 09:47:28;;;;;;;9.90;7.30;;;26.50;99.90;;;;;;10555656;28;20277;-80
2023/08/26 09:52:49;;;;;;;11.15;7.63;;;;;;;;;;10528970;28;20199;-79
2023/08/26 09:58:11;;;;;;;10.15;8.25;;;26.10;1.00;;;;;;10564610;28;20242;-79
2023/08/26 10:03:36;;;;;;;9.05;7.60;;;25.80;1.00;;;;;;10551511;28;20276;-80
2023/08/26 10:09:22;;;;;;;11.73;7.78;;;25.60;99.90;;;;;;10567575;28;20261;-82
2023/08/26 10:14:47;;;;;;;12.07;8.27;;;25.40;99.90;;;;;;10552583;28;20278;-81
2023/08/26 10:20:09;;;;;;;8.30;7.35;;;25.20;99.90;;;;;;10566064;28;20225;-81
2023/08/26 10:25:32;;;;;;;10.50;8.20;;;25.00;1.00;;;;;;10551384;28;20191;-80
2023/08/26 10:30:54;;;;;;;10.40;8.20;;;24.80;64.20;;;;;;10565623;28;20265;-90
2023/08/26 10:36:15;;;;;;;9.68;7.97;;;24.70;1.00;;;;;;10564751;28;20234;-83
2023/08/26 10:41:36;;;;;;;9.95;7.82;;;24.50;1.00;;;;;;10565807;28;20226;-83
2023/08/26 10:46:57;;;;;;;6.90;6.20;;;24.20;1.00;;;;;;10566277;28;20220;-86
2023/08/26 10:52:29;;;;;;;6.47;4.85;;;24.00;34.50;;;;;;10550309;28;20505;-80
2023/08/26 10:58:13;;;;;;;5.32;3.53;;;23.80;99.90;;;;;;10550198;28;20233;-80
2023/08/26 11:03:37;;;;;;;3.80;2.72;;;23.70;1.00;;;;;;10550821;28;20205;-88
2023/08/26 11:08:58;;;;;;;7.13;2.70;;;23.50;99.90;;;;;;10550023;28;20236;-89
2023/08/26 11:14:30;;;;;;;7.45;3.40;;;23.30;65.30;;;;;;10563773;28;20224;-84
2023/08/26 11:19:54;;;;;;;5.70;3.20;;;23.20;2.50;;;;;;10563085;28;20267;-82
2023/08/26 11:25:16;;;;;;;6.20;2.92;;;;;;;;;;10548683;28;20236;-82
2023/08/26 11:30:43;;;;;;;1.77;1.60;;;23.00;1.00;;;;;;10549457;28;20358;-81
2023/08/26 11:36:05;;;;;;;5.32;2.38;;;23.10;1.00;;;;;;10562503;28;20291;-83
2023/08/26 11:41:28;;;;;;;2.75;2.13;;;23.30;1.00;;;;;;10547051;28;20330;-85
2023/08/26 11:46:50;;;;;;;1.70;1.60;;;23.50;1.00;;;;;;10548740;28;20236;-88
2023/08/26 11:52:12;;;;;;;3.10;2.05;;;23.60;99.90;;;;;;10505825;28;20454;-83
2023/08/26 11:57:38;;;;;;;2.42;1.90;;;24.20;99.90;;;;;;10554993;28;20367;-81
2023/08/26 12:03:04;;;;;;;3.08;2.17;;;25.10;99.90;;;;;;10561643;28;20222;-80
2023/08/26 12:08:25;;;;;;;3.25;1.98;;;25.60;1.00;;;;;;10533113;28;20198;-90
2023/08/26 12:13:49;;;;;;;6.20;2.65;;;27.80;99.90;;;;;;10533086;28;20205;-81
2023/08/26 12:19:18;;;;;;;3.90;2.42;;;27.80;99.90;;;;;;10561341;28;20524;-86
2023/08/26 12:24:40;;;;;;;2.78;2.15;;;28.20;1.00;;;;;;10561360;28;20190;-89
2023/08/26 12:30:01;;;;;;;4.95;1.95;;;28.50;1.00;;;;;;10546942;28;20210;-83
2023/08/26 12:35:22;;;;;;;2.30;2.10;;;28.90;1.00;;;;;;10560825;28;20237;-80
2023/08/26 12:40:47;;;;;;;3.80;2.00;;;28.90;1.00;;;;;;10561101;28;20238;-84
2023/08/26 12:46:08;;;;;;;3.92;2.20;;;28.40;1.00;;;;;;10562159;28;20187;-80
2023/08/26 12:51:30;;;;;;;2.40;2.08;;;28.20;1.00;;;;;;10546695;28;20198;-87
2023/08/26 12:56:51;;;;;;;2.30;1.70;;;28.00;1.00;;;;;;10546409;28;20194;-83
2023/08/26 13:02:13;;;;;;;5.20;2.47;;;27.90;1.00;;;;;;10560567;28;20234;-80
2023/08/26 13:07:35;;;;;;;4.40;2.25;;;28.40;1.00;;;;;;10546217;28;20200;-84
2023/08/26 13:12:56;;;;;;;6.28;2.30;;;28.60;1.00;;;;;;10546295;28;20228;-82
2023/08/26 13:18:17;;;;;;;3.20;2.40;;;28.60;1.00;;;;;;10560132;28;20289;-84
2023/08/26 13:23:39;;;;;;;4.43;2.08;;;28.50;1.00;;;;;;10560225;28;20201;-86
2023/08/26 13:29:00;;;;;;;2.85;2.03;;;27.90;1.00;;;;;;10560084;28;20273;-83
2023/08/26 13:34:21;;;;;;;3.88;2.38;;;27.60;1.00;;;;;;10545625;28;20281;-81
2023/08/26 13:39:43;;;;;;;6.07;2.17;;;27.30;1.00;;;;;;10548185;28;20241;-87
2023/08/26 13:45:05;;;;;;;2.55;1.90;;;27.00;1.00;;;;;;10552762;28;20206;-81
2023/08/26 13:50:29;;;;;;;3.97;2.30;;;26.80;1.00;;;;;;10552995;28;20203;-89
2023/08/26 13:55:55;;;;;;;4.32;2.53;;;26.70;1.00;;;;;;10538786;28;20544;-86
2023/08/26 14:01:18;;;;;;;4.63;2.33;;;26.70;1.00;;;;;;10552653;28;20226;-80
2023/08/26 14:06:39;;;;;;;2.55;2.35;;;26.50;1.00;;;;;;10566445;28;20210;-81
2023/08/26 14:12:01;;;;;;;2.85;2.30;;;26.20;1.00;;;;;;10551991;28;20198;-81
2023/08/26 14:17:22;;;;;;;3.40;1.85;;;26.00;1.00;;;;;;10566134;28;20194;-80
2023/08/26 14:22:43;;;;;;;2.78;2.10;;;25.80;1.00;;;;;;10551419;28;20198;-80
2023/08/26 14:28:05;;;;;;;2.35;1.95;;;25.70;1.00;;;;;;10537156;28;20274;-85
2023/08/26 14:33:26;;;;;;;2.83;2.15;;;25.60;1.00;;;;;;10550857;28;20202;-85
2023/08/26 14:38:47;;;;;;;3.75;2.28;;;25.50;1.00;;;;;;10551244;28;20544;-84
2023/08/26 14:44:08;;;;;;;2.97;2.50;;;25.40;13.70;;;;;;10551852;28;20198;-81
2023/08/26 14:49:30;;;;;;;2.92;2.63;;;;;;;;;;10551818;28;20202;-91
2023/08/26 14:54:51;;;;;;;2.47;2.20;;;;;;;;;;10569562;28;20186;-81
2023/08/26 15:00:15;;;;;;;3.10;2.35;;;;;;;;;;10572403;28;20226;-80
2023/08/26 15:05:37;;;;;;;4.18;2.85;;;;;;;;;;10565060;28;20183;-83
2023/08/26 15:10:58;;;;;;;6.68;3.38;;;;;;;;;;10552208;28;20222;-80
2023/08/26 15:16:20;;;;;;;7.57;4.15;;;24.80;23.80;;;;;;10554697;28;20198;-79
2023/08/26 15:21:44;;;;;;;5.78;4.00;;;24.20;99.90;;;;;;10557311;28;20237;-81
2023/08/26 15:27:05;;;;;;;5.88;4.50;;;;;;;;;;10553740;28;20503;-83
2023/08/26 15:32:26;;;;;;;7.32;3.22;;;24.00;1.00;;;;;;10563739;28;20200;-89
2023/08/26 15:37:50;;;;;;;4.43;2.28;;;;;;;;;;10563029;28;20309;-89
2023/08/26 15:43:14;;;;;;;4.20;2.30;;;;;;;;;;10564556;28;20248;-90
2023/08/26 15:48:37;;;;;;;7.45;2.63;;;;;;;;;;10534886;28;20212;-91
2023/08/26 15:53:59;;;;;;;4.18;2.78;;;;;;;;;;10548060;28;20215;-82
2023/08/26 15:59:21;;;;;;;7.63;4.10;;;;;;;;;;10562224;28;20402;-81
2023/08/26 16:04:43;;;;;;;4.40;3.90;;;;;;;;;;10547295;28;20224;-82
2023/08/26 16:10:07;;;;;;;5.68;4.53;;;23.90;1.00;;;;;;10547346;28;20278;-79
2023/08/26 16:15:28;;;;;;;8.07;5.07;;;23.90;99.90;;;;;;10547231;28;20277;-79
2023/08/26 16:20:49;;;;;;;6.35;5.43;;;23.80;1.00;;;;;;10546761;28;20225;-80
2023/08/26 16:26:12;;;;;;;9.73;5.40;;;;;;;;;;10546748;28;20199;-83
2023/08/26 16:31:35;;;;;;;6.85;5.22;;;;;;;;;;10561794;28;20632;-80
2023/08/26 16:36:56;;;;;;;7.97;5.20;;;;;;;;;;10546386;28;20225;-82
2023/08/26 16:42:18;;;;;;;7.68;5.25;;;;;;;;;;10561759;28;20214;-83
2023/08/26 16:47:41;;;;;;;6.18;5.45;;;;;;;;;;10560795;28;20261;-79
2023/08/26 16:53:03;;;;;;;6.22;4.97;;;22.90;1.00;;;;;;10546680;28;20183;-80
2023/08/26 16:58:24;;;;;;;6.10;5.20;;;23.10;1.00;;;;;;10535128;28;20242;-79
2023/08/26 17:03:45;;;;;;;7.07;5.05;;;23.00;1.00;;;;;;10504527;28;20385;-80
2023/08/26 17:09:07;;;;;;;6.68;5.05;;;23.00;1.00;;;;;;10504431;28;20199;-83
2023/08/26 17:14:29;;;;;;;5.45;4.93;;;22.90;1.00;;;;;;10523296;28;20270;-80
2023/08/26 17:19:51;;;;;;;4.80;4.30;;;;;;;;;;10528821;28;20242;-80
2023/08/26 17:25:12;;;;;;;6.35;4.95;;;22.70;1.00;;;;;;10553975;28;20222;-79
2023/08/26 17:30:33;;;;;;;8.52;5.30;;;22.60;1.00;;;;;;10553683;28;20198;-80
2023/08/26 17:35:54;;;;;;;5.45;4.60;;;22.60;1.00;;;;;;10567636;28;20414;-81
2023/08/26 17:41:15;;;;;;;5.03;4.50;;;22.40;1.00;;;;;;10552893;28;20254;-87
2023/08/26 17:46:37;;;;;;;5.00;4.45;;;22.40;1.00;;;;;;10555984;28;20201;-82
2023/08/26 17:51:58;;;;;;;8.68;4.70;;;22.40;1.00;;;;;;10567474;28;20198;-86
2023/08/26 17:57:20;;;;;;;5.43;4.63;;;;;;;;;;10538937;28;20194;-88
2023/08/26 18:02:41;;;;;;;8.32;5.93;;;22.20;1.00;;;;;;10553145;28;20249;-87
2023/08/26 18:08:04;;;;;;;7.57;6.00;;;22.10;1.00;;;;;;10538600;28;20190;-86
2023/08/26 18:13:25;;;;;;;13.02;11.02;;;22.10;1.00;;;;;;10538017;28;20199;-79
2023/08/26 18:18:47;;;;;;;14.10;10.38;;;21.90;1.00;;;;;;10567042;28;20206;-88
2023/08/26 18:24:08;;;;;;;14.05;10.07;;;21.90;22.50;;;;;;10551908;28;20509;-91
2023/08/26 18:29:39;;;;;;;15.57;8.63;;;;;;;;;;10538182;28;20205;-89
2023/08/26 18:35:01;;;;;;;7.35;6.32;;;21.70;1.00;;;;;;10566179;28;20256;-88
2023/08/26 18:40:22;;;;;;;6.25;5.35;;;21.60;8.50;;;;;;10566622;28;20234;-82
2023/08/26 18:45:46;;;;;;;6.25;5.22;;;21.60;1.00;;;;;;10551551;28;20199;-89
2023/08/26 18:51:07;;;;;;;7.32;4.47;;;21.50;1.00;;;;;;10565281;28;20194;-85
2023/08/26 18:56:28;;;;;;;6.93;5.38;;;21.50;1.00;;;;;;10565238;28;20198;-79
2023/08/26 19:01:49;;;;;;;9.00;5.72;;;21.50;1.00;;;;;;10550340;28;20234;-83
2023/08/26 19:07:10;;;;;;;5.93;4.65;;;21.40;1.00;;;;;;10550512;28;20493;-87
2023/08/26 19:12:32;;;;;;;5.93;4.22;;;21.40;1.00;;;;;;10565555;28;20191;-90
2023/08/26 19:17:52;;;;;;;4.95;4.15;;;21.40;1.00;;;;;;10535586;28;20224;-81
2023/08/26 19:23:14;;;;;;;4.13;3.70;;;21.40;1.00;;;;;;10563302;28;20268;-81
2023/08/26 19:28:35;;;;;;;4.72;4.13;;;21.30;1.00;;;;;;10549434;28;20550;-79
2023/08/26 19:33:56;;;;;;;5.35;4.03;;;21.30;1.00;;;;;;10563402;28;20426;-80
2023/08/26 19:39:17;;;;;;;4.85;4.30;;;21.30;1.00;;;;;;10561020;28;20300;-82
2023/08/26 19:44:39;;;;;;;8.75;4.55;;;21.30;1.00;;;;;;10534457;28;20368;-81
2023/08/26 19:50:00;;;;;;;5.80;4.82;;;21.20;1.00;;;;;;10562953;28;20194;-83
2023/08/26 19:55:21;;;;;;;6.25;5.30;;;21.10;1.00;;;;;;10533717;28;20191;-86
2023/08/26 20:00:43;;;;;;;6.22;4.93;;;21.10;1.00;;;;;;10547950;28;20279;-85
2023/08/26 20:06:04;;;;;;;6.72;5.88;;;20.80;1.00;;;;;;10533605;28;20358;-85
2023/08/26 20:11:25;;;;;;;7.10;6.40;;;20.90;1.00;;;;;;10533999;28;20222;-85
2023/08/26 20:16:47;;;;;;;7.85;5.70;;;20.90;1.00;;;;;;10547776;28;20183;-82
2023/08/26 20:22:08;;;;;;;8.00;5.90;;;20.90;1.00;;;;;;10562274;28;20585;-86
2023/08/26 20:27:29;;;;;;;9.70;6.25;;;20.80;1.00;;;;;;10552382;28;20503;-86
2023/08/26 20:32:51;;;;;;;7.93;5.85;;;20.80;1.00;;;;;;10538593;28;20210;-81
2023/08/26 20:38:13;;;;;;;7.93;5.75;;;20.80;1.00;;;;;;10546969;28;20260;-88
2023/08/26 20:43:36;;;;;;;8.35;5.93;;;20.80;1.00;;;;;;10560815;28;20245;-85
2023/08/26 20:48:57;;;;;;;8.00;6.57;;;20.80;1.00;;;;;;10546102;28;20192;-84
2023/08/26 20:54:19;;;;;;;13.35;8.85;;;20.70;1.00;;;;;;10560712;28;20186;-83
2023/08/26 20:59:40;;;;;;;11.82;9.13;;;20.70;1.00;;;;;;10560786;28;20253;-80
2023/08/26 21:05:01;;;;;;;13.63;9.65;;;20.70;1.00;;;;;;10532279;28;20213;-84
2023/08/26 21:10:24;;;;;;;8.80;7.90;;;20.60;1.00;;;;;;10545999;28;20403;-81
2023/08/26 21:15:48;;;;;;;12.20;9.85;;;20.60;1.00;;;;;;10561512;28;20198;-82
2023/08/26 21:21:12;;;;;;;11.43;9.35;;;20.70;1.00;;;;;;10545629;28;20594;-85
2023/08/26 21:26:33;;;;;;;10.43;8.60;;;20.60;1.00;;;;;;10545740;28;20227;-82
2023/08/26 21:31:55;;;;;;;12.73;8.80;;;20.60;1.00;;;;;;10545773;28;20212;-81
2023/08/26 21:37:16;;;;;;;9.82;8.05;;;20.60;1.00;;;;;;10559754;28;20222;-88
2023/08/26 21:42:37;;;;;;;9.65;7.95;;;20.70;1.00;;;;;;10559839;28;20275;-82
2023/08/26 21:47:59;;;;;;;12.13;7.93;;;20.70;1.00;;;;;;10545065;28;20508;-82
2023/08/26 21:53:20;;;;;;;7.10;4.68;;;20.70;1.00;;;;;;10545263;28;20501;-84
2023/08/26 21:58:41;;;;;;;6.55;4.50;;;20.70;1.00;;;;;;10520634;28;20199;-87
2023/08/26 22:04:05;;;;;;;9.40;5.32;;;20.70;1.00;;;;;;10539337;28;20262;-81
2023/08/26 22:09:26;;;;;;;4.40;4.00;;;20.60;1.00;;;;;;10527353;28;20500;-83
2023/08/26 22:14:47;;;;;;;4.70;4.10;;;20.60;1.00;;;;;;10524843;28;20266;-84
2023/08/26 22:20:09;;;;;;;5.80;4.32;;;20.50;1.00;;;;;;10524478;28;20223;-84
2023/08/26 22:25:31;;;;;;;6.47;4.18;;;20.40;1.00;;;;;;10564760;28;20500;-80
2023/08/26 22:30:52;;;;;;;7.72;4.15;;;20.40;1.00;;;;;;10537223;28;20211;-82
2023/08/26 22:36:15;;;;;;;5.65;4.45;;;;;;;;;;10551195;28;20241;-82
2023/08/26 22:41:36;;;;;;;5.85;4.25;;;20.20;1.00;;;;;;10509388;28;20237;-80
2023/08/26 22:46:58;;;;;;;5.35;4.45;;;19.80;1.00;;;;;;10525526;28;20195;-82
2023/08/26 22:52:19;;;;;;;5.15;4.20;;;;;;;;;;10548941;28;20202;-86
2023/08/26 22:57:40;;;;;;;7.82;5.07;;;19.90;1.00;;;;;;10565543;28;20201;-81
2023/08/26 23:03:01;;;;;;;5.05;4.38;;;19.80;1.00;;;;;;10550372;28;20423;-86
2023/08/26 23:08:23;;;;;;;5.35;4.85;;;19.80;1.00;;;;;;10550208;28;20220;-83
2023/08/26 23:13:45;;;;;;;4.53;4.10;;;19.70;1.00;;;;;;10549804;28;20251;-81
2023/08/26 23:19:06;;;;;;;5.43;4.93;;;19.70;1.00;;;;;;10565303;28;20218;-81
2023/08/26 23:24:27;;;;;;;5.18;4.43;;;19.60;1.00;;;;;;10564010;28;20191;-87
2023/08/26 23:29:49;;;;;;;7.43;4.32;;;19.60;1.00;;;;;;10563806;28;20197;-84
2023/08/26 23:35:10;;;;;;;4.57;4.18;;;19.60;1.00;;;;;;10548651;28;20233;-84
2023/08/26 23:40:31;;;;;;;5.53;4.60;;;19.60;1.00;;;;;;10521045;28;20230;-85
2023/08/26 23:45:53;;;;;;;10.27;5.78;;;19.50;1.00;;;;;;10520655;28;20199;-80
2023/08/26 23:51:14;;;;;;;9.68;6.07;;;19.50;1.00;;;;;;10551589;28;20198;-83
2023/08/26 23:56:35;;;;;;;7.05;5.63;;;19.40;1.00;;;;;;10564014;28;20190;-85
